Rechercher aéroport 
image banner adimage banner adimage banner ad
image banner ad

76CN - El Centro Rgnl Medical Center

Situé à El Centro, United States

ICAO - 76CN, IATA -

Données fournies par Airmate  

Information générale

Coordonnées: N32°46'47" W115°34'7"
Élévation : 75 feet MSL.
 
Voir autres Aéroports à California

Données opérationnelles

Special qualification required
Heure actuelle UTC:
Heure actuelle locale:
Météo à : KIPL - Imperial County ( 6 km )
METAR: KIPL 300153Z AUTO 22009KT 10SM CLR 42/13 A2966 RMK AO2 SLP043 T04220133
TAF: KIPL 292358Z 3000/3024 VRB05KT P6SM SCT100 BKN250 FM300100 21010KT P6SM VCSH SCT100 BKN150 FM300300 24012KT P6SM FEW100 SCT250 FM300700 16010KT P6SM FEW100 SCT250 FM302200 VRB06KT 6SM BLDU VCSH SCT100 BKN250
Voir NOTAMs / SUP AIP / TFR affectant cet aéroport [VIEW]
Fréquences de communication: [VIEW]

Pistes:

Coordonnées de l'aéroport

Adresse: El Centro United States

Vue satellite de 76CN